Time;durP1;ratioP1;P1;durP2;ratioP2;P2;SDS_P1;SDS_P2;PMS_P1;PMS_P2;Temp;Humidity;BMP_temperature;BMP_pressure;BME280_temperature;BME280_humidity;BME280_pressure;Samples;Min_cycle;Max_cycle;Signal;HPM_P1;HPM_P2
2022/09/15 00:00:41;;;;;;;2.47;1.17;;;20.10;99.90;;;;;;10135841;28;20103;-55
2022/09/15 00:05:31;;;;;;;1.77;0.80;;;20.10;99.90;;;;;;10132056;28;20549;-58
2022/09/15 00:10:22;;;;;;;3.47;1.17;;;20.10;99.90;;;;;;10130786;28;20020;-60
2022/09/15 00:15:14;;;;;;;2.17;1.20;;;20.00;99.90;;;;;;10130016;28;20469;-60
2022/09/15 00:20:06;;;;;;;1.40;1.27;;;20.20;99.90;;;;;;10135583;28;20103;-56
2022/09/15 00:24:56;;;;;;;3.75;1.00;;;20.30;99.90;;;;;;10133820;28;20041;-58
2022/09/15 00:29:47;;;;;;;2.40;1.38;;;20.30;99.90;;;;;;10127051;28;20028;-59
2022/09/15 00:34:38;;;;;;;1.30;1.08;;;20.30;99.90;;;;;;10134324;28;20143;-59
2022/09/15 00:39:28;;;;;;;3.22;1.20;;;20.40;99.90;;;;;;10100463;28;20048;-59
2022/09/15 00:44:19;;;;;;;3.72;1.30;;;20.30;99.90;;;;;;10077617;28;20052;-59
2022/09/15 00:49:19;;;;;;;4.45;1.50;;;20.40;99.90;;;;;;10088121;28;20481;-62
2022/09/15 00:54:20;;;;;;;3.28;1.33;;;20.30;99.90;;;;;;10088294;28;20033;-61
2022/09/15 00:59:16;;;;;;;2.03;1.60;;;20.30;99.90;;;;;;10093628;28;20029;-60
2022/09/15 01:04:06;;;;;;;2.85;0.95;;;20.20;99.90;;;;;;10090061;28;20037;-63
2022/09/15 01:09:18;;;;;;;1.42;1.02;;;20.20;99.90;;;;;;10093971;28;20083;-61
2022/09/15 01:14:09;;;;;;;2.30;1.00;;;20.20;99.90;;;;;;10086834;28;20510;-62
2022/09/15 01:19:21;;;;;;;1.70;1.60;;;20.20;99.90;;;;;;10094251;28;20385;-63
2022/09/15 01:24:38;;;;;;;3.20;0.82;;;20.20;99.90;;;;;;10093822;28;20542;-58
2022/09/15 01:29:44;;;;;;;0.77;0.65;;;20.20;99.90;;;;;;10083382;28;20047;-60
2022/09/15 01:34:43;;;;;;;2.75;1.55;;;20.10;99.90;;;;;;10079255;28;20045;-60
2022/09/15 01:39:39;;;;;;;0.77;0.70;;;20.10;99.90;;;;;;10090327;28;20055;-61
2022/09/15 01:44:53;;;;;;;3.08;1.20;;;20.10;99.90;;;;;;10089275;28;20033;-58
2022/09/15 01:50:05;;;;;;;1.30;0.80;;;20.00;99.90;;;;;;10092610;28;20221;-55
2022/09/15 01:55:01;;;;;;;2.25;0.95;;;20.00;99.90;;;;;;10073963;28;20483;-59
2022/09/15 01:59:54;;;;;;;2.05;1.15;;;20.00;99.90;;;;;;10071063;28;20364;-59
2022/09/15 02:04:58;;;;;;;1.27;0.70;;;20.00;99.90;;;;;;11207532;22;20697;-58
2022/09/15 02:10:16;;;;;;;1.92;1.20;;;19.90;99.90;;;;;;10081550;28;20265;-56
2022/09/15 02:15:10;;;;;;;1.50;1.00;;;19.90;99.90;;;;;;10082264;28;20029;-57
2022/09/15 02:20:10;;;;;;;2.58;0.80;;;19.90;99.90;;;;;;10079598;28;20252;-57
2022/09/15 02:25:12;;;;;;;2.95;0.73;;;19.90;99.90;;;;;;10090690;28;20089;-62
2022/09/15 02:30:10;;;;;;;2.28;1.15;;;19.90;99.90;;;;;;10100081;28;20061;-54
2022/09/15 02:35:05;;;;;;;2.50;0.90;;;19.90;99.90;;;;;;10095919;28;20253;-58
2022/09/15 02:39:57;;;;;;;2.47;0.93;;;19.80;99.90;;;;;;10073856;28;20338;-56
2022/09/15 02:44:48;;;;;;;1.48;0.90;;;19.80;99.90;;;;;;10088436;28;20045;-56
2022/09/15 02:49:38;;;;;;;1.67;0.82;;;19.70;99.90;;;;;;10082911;28;20048;-59
2022/09/15 02:54:29;;;;;;;1.35;1.05;;;19.60;99.90;;;;;;10079662;28;20402;-54
2022/09/15 02:59:20;;;;;;;1.20;1.10;;;19.60;99.90;;;;;;10081889;28;20092;-54
2022/09/15 03:04:10;;;;;;;1.45;0.77;;;19.60;99.90;;;;;;10093740;28;20102;-57
2022/09/15 03:09:05;;;;;;;3.80;1.15;;;19.60;99.90;;;;;;10043949;28;20025;-59
2022/09/15 03:14:00;;;;;;;4.00;0.98;;;19.60;99.90;;;;;;10050792;28;20033;-59
2022/09/15 03:18:52;;;;;;;3.75;1.17;;;19.60;99.90;;;;;;10049179;28;20029;-57
2022/09/15 03:23:43;;;;;;;2.25;1.63;;;19.60;99.90;;;;;;10049021;28;20535;-57
2022/09/15 03:28:36;;;;;;;0.77;0.73;;;19.60;99.90;;;;;;10038650;28;20222;-57
2022/09/15 03:33:26;;;;;;;1.73;1.00;;;19.60;99.90;;;;;;10060526;28;20228;-53
2022/09/15 03:38:18;;;;;;;1.20;0.80;;;19.60;99.90;;;;;;10058125;28;20026;-56
2022/09/15 03:43:10;;;;;;;1.88;0.82;;;19.50;99.90;;;;;;10049934;28;20061;-56
2022/09/15 03:48:01;;;;;;;3.10;1.00;;;19.60;99.90;;;;;;10060546;28;20014;-56
2022/09/15 03:52:52;;;;;;;2.85;1.17;;;19.60;99.90;;;;;;10047450;28;20030;-54
2022/09/15 03:57:42;;;;;;;2.00;0.70;;;19.50;99.90;;;;;;10037595;28;20057;-54
2022/09/15 04:02:33;;;;;;;1.95;1.50;;;19.60;99.90;;;;;;10041238;28;20091;-57
2022/09/15 04:07:23;;;;;;;1.30;1.10;;;19.60;99.90;;;;;;10065196;28;20068;-54
2022/09/15 04:12:14;;;;;;;1.42;0.95;;;19.70;99.90;;;;;;10096706;28;20036;-57
2022/09/15 04:17:05;;;;;;;3.28;1.15;;;19.60;99.90;;;;;;10089580;28;20030;-57
2022/09/15 04:21:55;;;;;;;1.52;0.90;;;19.60;99.90;;;;;;10082415;28;20025;-58
2022/09/15 04:26:46;;;;;;;1.80;0.90;;;19.50;99.90;;;;;;10062762;28;20029;-58
2022/09/15 04:31:37;;;;;;;1.48;0.90;;;19.50;99.90;;;;;;10061901;28;20152;-57
2022/09/15 04:36:28;;;;;;;1.70;0.70;;;19.50;99.90;;;;;;10081018;28;20028;-61
2022/09/15 04:41:19;;;;;;;1.30;0.82;;;19.50;99.90;;;;;;10078226;28;20033;-59
2022/09/15 04:46:11;;;;;;;1.80;0.80;;;19.50;99.90;;;;;;10080821;28;20037;-62
2022/09/15 04:51:04;;;;;;;1.50;0.70;;;19.50;99.90;;;;;;10062360;28;20431;-61
2022/09/15 04:56:22;;;;;;;2.10;0.90;;;19.50;99.90;;;;;;10063826;28;20060;-61
2022/09/15 05:01:21;;;;;;;1.70;0.82;;;19.40;99.90;;;;;;10057649;28;20045;-57
2022/09/15 05:06:15;;;;;;;5.03;1.35;;;19.30;99.90;;;;;;10028926;28;20413;-55
2022/09/15 05:11:11;;;;;;;1.05;0.90;;;19.30;99.90;;;;;;10050477;28;20025;-57
2022/09/15 05:16:07;;;;;;;0.95;0.63;;;19.40;99.90;;;;;;10090557;28;20211;-57
2022/09/15 05:20:59;;;;;;;1.80;0.60;;;19.30;99.90;;;;;;10063258;28;20049;-57
2022/09/15 05:25:57;;;;;;;2.53;1.10;;;19.30;99.90;;;;;;10059196;28;20033;-59
2022/09/15 05:30:48;;;;;;;2.92;0.73;;;19.20;99.90;;;;;;10053761;28;20030;-55
2022/09/15 05:35:39;;;;;;;1.70;0.70;;;19.20;99.90;;;;;;10060405;28;20021;-58
2022/09/15 05:40:31;;;;;;;2.38;0.73;;;19.30;99.90;;;;;;10085636;28;20029;-57
2022/09/15 05:45:21;;;;;;;1.10;0.80;;;19.30;99.90;;;;;;10086677;28;20037;-59
2022/09/15 05:50:13;;;;;;;2.08;0.77;;;19.40;99.90;;;;;;10078799;28;20084;-56
2022/09/15 05:55:04;;;;;;;3.28;1.20;;;19.40;99.90;;;;;;10089972;28;20048;-57
2022/09/15 05:59:54;;;;;;;1.70;1.20;;;19.50;99.90;;;;;;10065709;28;20558;-55
2022/09/15 06:04:46;;;;;;;1.73;0.93;;;19.50;99.90;;;;;;10061243;28;20298;-60
2022/09/15 06:09:36;;;;;;;4.13;0.95;;;19.50;99.90;;;;;;10069584;28;20037;-62
2022/09/15 06:14:27;;;;;;;1.30;0.90;;;19.50;99.90;;;;;;10078609;28;20170;-59
2022/09/15 06:19:18;;;;;;;2.55;1.20;;;19.40;99.90;;;;;;10068359;28;20040;-58
2022/09/15 06:24:11;;;;;;;3.22;1.30;;;19.40;99.90;;;;;;10070713;28;20072;-57
2022/09/15 06:29:03;;;;;;;3.13;1.13;;;19.50;99.90;;;;;;10072591;28;20034;-58
2022/09/15 06:33:56;;;;;;;4.38;1.80;;;19.30;99.90;;;;;;10061892;28;20097;-53
2022/09/15 06:38:47;;;;;;;2.90;1.40;;;19.30;99.90;;;;;;10083461;28;20025;-58
2022/09/15 06:43:38;;;;;;;3.20;0.82;;;19.40;99.90;;;;;;10097415;28;20032;-55
2022/09/15 06:48:31;;;;;;;2.05;1.00;;;19.60;99.90;;;;;;10091603;28;20051;-59
2022/09/15 06:53:21;;;;;;;3.80;1.10;;;19.60;99.90;;;;;;10091238;28;20017;-58
2022/09/15 06:58:12;;;;;;;2.60;1.00;;;19.70;99.90;;;;;;10073552;28;20108;-63
2022/09/15 07:03:03;;;;;;;3.42;1.65;;;19.80;99.90;;;;;;10061882;28;20022;-60
2022/09/15 07:07:53;;;;;;;3.22;1.13;;;19.70;99.90;;;;;;10044259;28;20533;-61
2022/09/15 07:12:45;;;;;;;2.58;0.88;;;19.90;99.90;;;;;;10069259;28;20289;-60
2022/09/15 07:17:36;;;;;;;1.45;0.90;;;19.70;99.90;;;;;;10044725;28;20214;-61
2022/09/15 07:22:26;;;;;;;2.55;1.60;;;19.70;99.90;;;;;;10047333;28;20040;-54
2022/09/15 07:27:17;;;;;;;1.05;0.63;;;19.60;99.90;;;;;;10036843;28;20105;-54
2022/09/15 07:32:08;;;;;;;1.63;0.85;;;19.70;99.90;;;;;;10046879;28;20028;-60
2022/09/15 07:36:59;;;;;;;1.50;1.00;;;19.80;99.90;;;;;;10053262;28;20040;-52
2022/09/15 07:41:49;;;;;;;2.10;1.33;;;19.80;99.90;;;;;;10065995;28;20256;-55
2022/09/15 07:46:40;;;;;;;1.95;0.95;;;19.80;99.90;;;;;;10051802;28;20119;-58
2022/09/15 07:51:31;;;;;;;2.45;1.15;;;19.90;99.90;;;;;;10045284;28;20049;-61
2022/09/15 07:56:22;;;;;;;2.85;0.95;;;20.00;99.90;;;;;;10040996;28;20022;-58
2022/09/15 08:01:14;;;;;;;4.40;2.80;;;20.20;99.90;;;;;;10042120;28;20041;-58
2022/09/15 08:06:04;;;;;;;3.08;1.77;;;20.20;99.90;;;;;;10059128;28;20061;-59
2022/09/15 08:10:56;;;;;;;1.65;1.00;;;20.10;99.90;;;;;;10087239;28;20095;-59
2022/09/15 08:15:47;;;;;;;5.40;1.10;;;20.20;99.90;;;;;;10097149;28;20495;-57
2022/09/15 08:20:42;;;;;;;1.25;1.13;;;20.20;99.90;;;;;;10073847;28;20053;-57
2022/09/15 08:25:32;;;;;;;7.75;1.42;;;20.20;99.90;;;;;;10059093;28;20053;-60
2022/09/15 08:30:23;;;;;;;1.40;0.90;;;20.40;99.90;;;;;;10077056;28;20061;-61
2022/09/15 08:35:15;;;;;;;2.35;0.80;;;20.70;99.90;;;;;;10110188;28;20143;-59
2022/09/15 08:40:06;;;;;;;3.30;1.27;;;20.70;99.90;;;;;;10088871;28;20025;-60
2022/09/15 08:45:08;;;;;;;2.08;1.10;;;20.60;99.90;;;;;;10102405;28;20037;-59
2022/09/15 08:50:29;;;;;;;2.38;1.27;;;20.50;99.90;;;;;;10094362;28;20033;-58
2022/09/15 08:55:43;;;;;;;1.23;1.10;;;20.30;99.90;;;;;;10081302;28;20024;-58
2022/09/15 09:00:34;;;;;;;1.88;1.25;;;20.30;99.90;;;;;;10080254;28;20032;-54
2022/09/15 09:06:09;;;;;;;3.03;1.00;;;20.30;99.90;;;;;;10073623;28;20068;-60
2022/09/15 09:11:11;;;;;;;1.75;1.20;;;20.20;99.90;;;;;;10029197;28;20265;-60
2022/09/15 09:16:28;;;;;;;1.98;1.58;;;20.30;99.90;;;;;;10098372;28;20081;-55
2022/09/15 09:21:28;;;;;;;1.83;1.38;;;20.50;99.90;;;;;;10084945;28;20232;-60
2022/09/15 09:26:20;;;;;;;2.35;1.15;;;20.60;99.90;;;;;;10076223;28;20344;-60
2022/09/15 09:31:20;;;;;;;2.35;1.40;;;20.60;99.90;;;;;;10090241;28;20232;-57
2022/09/15 09:36:11;;;;;;;3.08;1.73;;;20.70;99.90;;;;;;10105812;28;20278;-56
2022/09/15 09:41:12;;;;;;;2.38;1.98;;;20.60;99.90;;;;;;10091540;28;20052;-57
2022/09/15 09:46:13;;;;;;;2.58;1.30;;;20.40;99.90;;;;;;10084568;28;20037;-57
2022/09/15 09:51:24;;;;;;;3.42;2.00;;;20.10;99.90;;;;;;10056964;28;20041;-58
2022/09/15 09:56:25;;;;;;;2.80;1.08;;;19.90;99.90;;;;;;10056268;28;20483;-57
2022/09/15 10:01:18;;;;;;;2.42;0.98;;;19.00;99.90;;;;;;10053745;28;20029;-56
2022/09/15 10:06:15;;;;;;;2.13;0.98;;;18.50;99.90;;;;;;10053501;28;20140;-58
2022/09/15 10:11:09;;;;;;;2.90;1.30;;;18.30;99.90;;;;;;10080287;28;20483;-61
2022/09/15 10:16:02;;;;;;;2.08;0.80;;;18.30;99.90;;;;;;10068729;28;20044;-57
2022/09/15 10:20:53;;;;;;;4.28;2.17;;;18.40;99.90;;;;;;10070282;28;20506;-58
2022/09/15 10:25:44;;;;;;;1.50;0.98;;;18.20;99.90;;;;;;10064917;28;20438;-62
2022/09/15 10:30:41;;;;;;;4.25;1.70;;;17.90;99.90;;;;;;10046731;28;20048;-61
2022/09/15 10:35:32;;;;;;;2.05;1.23;;;17.80;99.90;;;;;;10065938;28;20037;-62
2022/09/15 10:40:54;;;;;;;3.33;1.55;;;18.00;99.90;;;;;;10070248;28;20024;-64
2022/09/15 10:45:48;;;;;;;4.68;1.70;;;18.40;99.90;;;;;;10072639;28;20029;-63
2022/09/15 10:50:57;;;;;;;4.10;1.98;;;18.50;99.90;;;;;;10072679;28;20418;-58
2022/09/15 10:56:02;;;;;;;3.55;2.10;;;18.80;99.90;;;;;;10068092;28;20445;-57
2022/09/15 11:01:14;;;;;;;5.90;2.25;;;18.70;99.90;;;;;;10064152;28;20021;-61
2022/09/15 11:06:20;;;;;;;2.45;1.92;;;18.60;99.90;;;;;;10046610;28;20423;-60
2022/09/15 11:11:29;;;;;;;3.53;1.95;;;19.00;99.90;;;;;;10078625;28;20407;-61
2022/09/15 11:16:39;;;;;;;5.82;2.10;;;19.60;99.90;;;;;;10084409;28;20080;-61
2022/09/15 11:21:51;;;;;;;1.88;1.27;;;19.90;99.90;;;;;;10065365;28;20053;-61
2022/09/15 11:26:52;;;;;;;2.28;1.80;;;19.80;99.90;;;;;;10090559;28;20419;-60
2022/09/15 11:31:47;;;;;;;4.10;1.90;;;19.60;99.90;;;;;;10057819;28;20397;-60
2022/09/15 11:36:55;;;;;;;5.90;1.98;;;19.90;99.90;;;;;;10090569;28;20029;-57
2022/09/15 11:42:00;;;;;;;2.83;1.80;;;20.00;99.90;;;;;;10092533;28;20032;-59
2022/09/15 11:47:06;;;;;;;3.75;1.92;;;20.00;99.90;;;;;;10092121;28;20041;-61
2022/09/15 11:52:21;;;;;;;3.85;2.65;;;20.10;99.90;;;;;;10079961;28;20258;-61
2022/09/15 11:57:20;;;;;;;4.27;2.53;;;20.00;99.90;;;;;;10077091;28;20033;-59
2022/09/15 12:02:29;;;;;;;1.50;1.27;;;20.00;99.90;;;;;;10073623;28;20103;-60
2022/09/15 12:07:27;;;;;;;3.35;1.45;;;20.00;99.90;;;;;;10082106;28;20270;-58
2022/09/15 12:12:20;;;;;;;4.05;1.42;;;19.70;99.90;;;;;;10089114;28;20463;-59
2022/09/15 12:17:27;;;;;;;3.47;1.33;;;19.60;99.90;;;;;;10088269;28;20037;-58
2022/09/15 12:22:38;;;;;;;5.05;1.60;;;19.70;99.90;;;;;;10079605;28;20036;-54
2022/09/15 12:27:29;;;;;;;4.15;2.10;;;20.10;99.90;;;;;;10072197;28;20080;-60
2022/09/15 12:32:24;;;;;;;3.50;1.92;;;20.70;99.90;;;;;;10076677;28;20309;-58
2022/09/15 12:37:15;;;;;;;4.15;1.75;;;21.30;99.90;;;;;;10090075;28;20044;-56
2022/09/15 12:42:17;;;;;;;2.97;1.63;;;21.60;99.90;;;;;;10076635;28;20112;-57
2022/09/15 12:47:25;;;;;;;2.63;1.63;;;22.50;99.90;;;;;;10074693;28;20065;-57
2022/09/15 12:52:19;;;;;;;5.57;3.63;;;22.10;99.90;;;;;;10072226;28;20034;-55
2022/09/15 12:57:23;;;;;;;;;;;21.90;99.90;;;;;;10067429;28;20053;-56
2022/09/15 13:02:47;;;;;;;2.92;1.67;;;21.60;99.90;;;;;;10061033;28;19931;-57
2022/09/15 13:07:58;;;;;;;5.68;2.20;;;22.00;99.90;;;;;;10034403;28;20557;-55
2022/09/15 13:12:53;;;;;;;3.60;2.15;;;22.60;99.90;;;;;;10084782;28;20044;-56
2022/09/15 13:17:45;;;;;;;1.98;1.40;;;23.10;99.90;;;;;;10074415;28;20055;-54
2022/09/15 13:22:42;;;;;;;2.35;2.00;;;23.10;99.90;;;;;;10060450;28;20201;-56
2022/09/15 13:27:37;;;;;;;3.45;1.50;;;23.90;99.90;;;;;;10045691;28;20494;-59
2022/09/15 13:32:42;;;;;;;3.25;1.48;;;25.50;99.90;;;;;;10069766;28;20035;-56
2022/09/15 13:38:19;;;;;;;3.30;1.63;;;26.90;99.90;;;;;;10050422;28;20025;-56
2022/09/15 13:43:10;;;;;;;2.17;1.42;;;28.00;99.90;;;;;;10077154;28;20037;-55
2022/09/15 13:48:22;;;;;;;3.17;1.48;;;29.00;99.90;;;;;;10072295;28;20068;-55
2022/09/15 13:53:41;;;;;;;3.58;2.17;;;27.50;99.90;;;;;;10064162;28;20033;-57
2022/09/15 13:58:32;;;;;;;2.65;1.70;;;25.20;99.90;;;;;;10060382;28;20075;-58
2022/09/15 14:03:49;;;;;;;3.22;1.50;;;23.90;99.90;;;;;;10055468;28;20099;-59
2022/09/15 14:08:42;;;;;;;4.90;1.67;;;23.50;99.90;;;;;;10081579;28;20542;-57
2022/09/15 14:13:35;;;;;;;3.20;1.63;;;24.50;99.90;;;;;;10077173;28;20067;-57
2022/09/15 14:18:27;;;;;;;2.70;1.27;;;25.70;99.90;;;;;;10068180;28;20144;-59
2022/09/15 14:23:17;;;;;;;3.47;1.55;;;27.60;99.90;;;;;;10052638;28;20083;-57
2022/09/15 14:28:20;;;;;;;2.20;1.38;;;28.30;99.90;;;;;;10055845;28;20054;-59
2022/09/15 14:33:14;;;;;;;1.83;1.30;;;28.60;99.90;;;;;;10080592;28;20112;-59
2022/09/15 14:38:05;;;;;;;5.45;1.55;;;27.80;99.90;;;;;;10073356;28;20074;-58
2022/09/15 14:42:57;;;;;;;2.58;2.17;;;26.70;99.90;;;;;;10076836;28;20179;-52
2022/09/15 14:48:00;;;;;;;3.67;1.92;;;26.40;99.90;;;;;;10070416;28;20017;-58
2022/09/15 14:52:50;;;;;;;3.17;1.50;;;25.30;99.90;;;;;;10057412;28;20025;-58
2022/09/15 14:57:47;;;;;;;1.75;1.60;;;26.40;99.70;;;;;;10058726;28;20048;-57
2022/09/15 15:02:50;;;;;;;3.17;1.35;;;28.70;98.20;;;;;;10058205;28;20049;-60
2022/09/15 15:07:41;;;;;;;3.17;1.60;;;30.70;96.50;;;;;;10093459;28;20053;-58
2022/09/15 15:12:41;;;;;;;2.03;1.25;;;30.00;96.90;;;;;;10082348;28;20044;-56
2022/09/15 15:17:44;;;;;;;1.90;1.52;;;32.10;95.00;;;;;;10077218;28;20072;-59
2022/09/15 15:22:39;;;;;;;2.22;1.33;;;29.50;95.50;;;;;;10066597;28;20025;-59
2022/09/15 15:27:32;;;;;;;2.35;1.70;;;29.60;96.20;;;;;;10051426;28;20033;-54
2022/09/15 15:32:24;;;;;;;2.60;1.20;;;31.80;93.80;;;;;;10103890;28;20119;-56
2022/09/15 15:37:33;;;;;;;3.97;2.03;;;28.10;95.20;;;;;;10089208;28;20033;-57
2022/09/15 15:42:27;;;;;;;2.63;1.20;;;25.60;96.80;;;;;;10083370;28;20056;-54
2022/09/15 15:47:18;;;;;;;3.72;1.58;;;24.50;97.80;;;;;;10085557;28;20045;-52
2022/09/15 15:52:08;;;;;;;3.17;1.60;;;24.00;98.00;;;;;;10081142;28;20026;-52
2022/09/15 15:57:23;;;;;;;2.42;1.48;;;23.90;97.70;;;;;;10068252;28;20403;-61
2022/09/15 16:02:13;;;;;;;4.88;1.70;;;23.70;98.00;;;;;;10065688;28;20106;-58
2022/09/15 16:07:04;;;;;;;3.42;1.65;;;23.70;97.90;;;;;;10071486;28;20098;-59
2022/09/15 16:11:55;;;;;;;4.22;1.77;;;23.90;97.80;;;;;;10097120;28;20137;-57
2022/09/15 16:16:46;;;;;;;2.88;1.70;;;24.50;97.20;;;;;;10078948;28;20036;-60
2022/09/15 16:21:40;;;;;;;4.75;1.75;;;24.40;97.10;;;;;;10069967;28;20049;-58
2022/09/15 16:26:33;;;;;;;3.55;1.70;;;23.50;97.60;;;;;;10059944;28;20065;-53
2022/09/15 16:31:24;;;;;;;3.17;2.10;;;23.00;98.00;;;;;;10066694;28;20168;-53
2022/09/15 16:36:16;;;;;;;4.90;1.70;;;22.60;98.00;;;;;;10090548;28;20100;-64
2022/09/15 16:41:16;;;;;;;4.30;2.60;;;22.20;98.10;;;;;;10074024;28;20029;-58
2022/09/15 16:46:09;;;;;;;4.18;3.40;;;22.00;97.60;;;;;;10079132;28;20083;-60
2022/09/15 16:50:59;;;;;;;3.30;2.30;;;21.90;97.80;;;;;;10066503;28;20033;-57
2022/09/15 16:55:52;;;;;;;3.42;2.13;;;21.80;97.80;;;;;;10062413;28;20223;-56
2022/09/15 17:00:44;;;;;;;7.65;3.45;;;21.70;97.70;;;;;;10082338;28;20034;-55
2022/09/15 17:05:42;;;;;;;12.30;4.68;;;21.70;97.70;;;;;;10074904;28;20169;-54
2022/09/15 17:10:34;;;;;;;6.95;2.42;;;21.70;97.70;;;;;;10105303;28;20021;-56
2022/09/15 17:15:28;;;;;;;6.18;2.42;;;21.60;97.80;;;;;;10056950;28;20021;-56
2022/09/15 17:20:20;;;;;;;2.65;2.15;;;21.60;97.90;;;;;;10078846;28;20422;-58
2022/09/15 17:25:30;;;;;;;4.05;2.47;;;21.60;97.90;;;;;;10077216;28;20037;-63
2022/09/15 17:30:23;;;;;;;3.38;2.08;;;21.70;97.90;;;;;;10063017;28;20398;-61
2022/09/15 17:35:21;;;;;;;4.78;2.92;;;21.70;98.00;;;;;;10062010;28;20029;-60
2022/09/15 17:40:13;;;;;;;4.88;2.67;;;21.50;98.10;;;;;;10087424;28;20210;-61
2022/09/15 17:45:22;;;;;;;5.43;3.40;;;21.50;98.30;;;;;;10078379;28;20270;-58
2022/09/15 17:50:14;;;;;;;3.92;2.42;;;21.40;98.30;;;;;;10070306;28;20040;-57
2022/09/15 17:55:25;;;;;;;6.35;3.30;;;21.40;98.30;;;;;;10047602;28;20075;-58
2022/09/15 18:00:17;;;;;;;5.95;3.20;;;21.40;98.80;;;;;;10049596;28;20033;-61
2022/09/15 18:05:33;;;;;;;6.05;3.38;;;21.40;98.60;;;;;;10054989;28;20164;-57
2022/09/15 18:10:26;;;;;;;4.95;3.13;;;21.30;98.80;;;;;;10068661;28;20063;-56
2022/09/15 18:15:24;;;;;;;4.72;3.05;;;21.30;99.00;;;;;;10072664;28;20034;-54
2022/09/15 18:20:19;;;;;;;3.70;2.65;;;21.10;99.20;;;;;;10064955;28;20277;-60
2022/09/15 18:25:32;;;;;;;8.43;2.60;;;20.90;99.70;;;;;;10056807;28;20041;-54
2022/09/15 18:30:25;;;;;;;5.80;2.70;;;20.90;99.80;;;;;;10053305;28;20033;-51
2022/09/15 18:35:18;;;;;;;4.25;2.42;;;20.80;99.90;;;;;;10060166;28;20113;-55
2022/09/15 18:40:11;;;;;;;3.33;2.13;;;20.80;99.90;;;;;;10069057;28;20036;-54
2022/09/15 18:45:02;;;;;;;6.63;3.25;;;20.70;99.90;;;;;;10072503;28;20494;-57
2022/09/15 18:49:53;;;;;;;4.78;2.75;;;20.70;99.90;;;;;;10071002;28;20344;-55
2022/09/15 18:54:44;;;;;;;4.88;2.35;;;20.70;99.90;;;;;;10076083;28;20033;-60
2022/09/15 18:59:34;;;;;;;3.60;2.28;;;20.60;99.90;;;;;;10070816;28;20035;-63
2022/09/15 19:04:25;;;;;;;7.25;2.35;;;20.70;99.90;;;;;;10068018;28;20324;-63
2022/09/15 19:09:16;;;;;;;5.55;2.40;;;20.60;99.90;;;;;;10085485;28;20679;-57
2022/09/15 19:14:07;;;;;;;5.97;2.78;;;20.40;99.90;;;;;;10088869;28;20494;-58
2022/09/15 19:19:01;;;;;;;8.50;3.22;;;20.40;99.90;;;;;;10075595;28;20127;-61
2022/09/15 19:23:55;;;;;;;7.82;3.20;;;20.50;99.90;;;;;;10065704;28;20101;-58
2022/09/15 19:28:49;;;;;;;3.47;2.55;;;20.40;99.90;;;;;;10061725;28;20033;-61
2022/09/15 19:33:40;;;;;;;4.57;2.05;;;20.20;99.90;;;;;;10067449;28;20025;-60
2022/09/15 19:38:31;;;;;;;3.10;2.00;;;20.20;99.90;;;;;;10079281;28;20521;-63
2022/09/15 19:43:22;;;;;;;2.70;2.05;;;20.10;99.90;;;;;;10084275;28;20021;-64
2022/09/15 19:48:12;;;;;;;7.65;2.30;;;20.10;99.90;;;;;;10080671;28;20092;-61
2022/09/15 19:53:03;;;;;;;5.07;2.33;;;20.00;99.90;;;;;;10074058;28;20021;-61
2022/09/15 19:57:54;;;;;;;4.95;2.10;;;19.90;99.90;;;;;;10068518;28;20502;-64
2022/09/15 20:02:47;;;;;;;5.55;2.42;;;19.80;99.90;;;;;;10045684;28;20029;-61
2022/09/15 20:07:37;;;;;;;4.50;1.90;;;19.80;99.90;;;;;;10081283;28;20052;-61
2022/09/15 20:12:28;;;;;;;2.80;2.22;;;19.80;99.90;;;;;;10094578;28;20382;-70
2022/09/15 20:17:19;;;;;;;2.45;1.85;;;19.80;99.90;;;;;;10074579;28;20041;-65
2022/09/15 20:22:10;;;;;;;3.47;2.45;;;19.60;99.90;;;;;;10078476;28;20037;-63
2022/09/15 20:27:00;;;;;;;5.70;2.20;;;19.60;99.90;;;;;;10074497;28;20042;-64
2022/09/15 20:31:51;;;;;;;5.88;2.72;;;19.60;99.90;;;;;;10073844;28;20021;-66
2022/09/15 20:36:42;;;;;;;3.08;2.15;;;19.50;99.90;;;;;;10078900;28;20108;-65
2022/09/15 20:41:33;;;;;;;2.70;1.75;;;19.50;99.90;;;;;;10063733;28;20021;-64
2022/09/15 20:46:24;;;;;;;5.13;2.50;;;19.50;99.90;;;;;;10057457;28;20044;-66
2022/09/15 20:51:17;;;;;;;3.58;2.70;;;19.60;99.90;;;;;;10070864;28;20105;-65
2022/09/15 20:56:07;;;;;;;5.22;2.42;;;19.50;99.90;;;;;;10054676;28;20454;-64
2022/09/15 21:01:09;;;;;;;5.45;3.22;;;19.60;99.90;;;;;;10060667;28;20029;-64
2022/09/15 21:06:06;;;;;;;5.72;2.88;;;19.60;99.90;;;;;;10043327;28;20057;-64
2022/09/15 21:10:58;;;;;;;5.38;2.45;;;19.50;99.90;;;;;;10074014;28;20052;-64
2022/09/15 21:15:57;;;;;;;3.60;2.67;;;19.30;99.90;;;;;;10072085;28;20018;-63
2022/09/15 21:20:55;;;;;;;6.90;2.85;;;19.50;99.90;;;;;;10080031;28;20033;-65
2022/09/15 21:25:46;;;;;;;4.65;3.50;;;19.30;99.90;;;;;;10062974;28;20029;-65
2022/09/15 21:30:36;;;;;;;5.50;2.70;;;19.20;99.90;;;;;;10056613;28;20022;-64
2022/09/15 21:35:27;;;;;;;6.50;2.83;;;19.10;99.90;;;;;;10066421;28;20641;-65
2022/09/15 21:40:18;;;;;;;4.10;3.20;;;19.10;99.90;;;;;;10085613;28;20028;-66
2022/09/15 21:45:09;;;;;;;3.88;2.65;;;19.00;99.90;;;;;;10044460;28;20384;-64
2022/09/15 21:50:00;;;;;;;4.55;2.50;;;19.10;99.90;;;;;;10048678;28;20067;-65
2022/09/15 21:54:50;;;;;;;6.45;3.22;;;19.10;99.90;;;;;;10067033;28;20029;-64
2022/09/15 21:59:41;;;;;;;3.90;2.85;;;19.10;99.90;;;;;;10075043;28;20216;-63
2022/09/15 22:04:33;;;;;;;3.83;2.92;;;19.20;99.90;;;;;;10065161;28;20400;-63
2022/09/15 22:09:24;;;;;;;4.85;2.90;;;19.30;99.90;;;;;;10055131;28;20030;-66
2022/09/15 22:14:15;;;;;;;4.10;2.50;;;19.20;99.90;;;;;;10091366;28;20336;-61
2022/09/15 22:19:08;;;;;;;5.28;2.30;;;19.30;99.90;;;;;;10082171;28;20040;-63
2022/09/15 22:23:59;;;;;;;3.95;3.20;;;19.40;99.90;;;;;;10072800;28;20052;-63
2022/09/15 22:28:49;;;;;;;4.93;2.47;;;19.30;99.90;;;;;;10063398;28;20033;-62
2022/09/15 22:33:43;;;;;;;4.93;2.80;;;19.20;99.90;;;;;;10062987;28;20029;-61
2022/09/15 22:38:35;;;;;;;6.53;3.28;;;19.20;99.90;;;;;;10092579;28;20106;-63
2022/09/15 22:43:26;;;;;;;4.85;3.05;;;19.20;99.90;;;;;;10074003;28;20029;-62
2022/09/15 22:48:17;;;;;;;6.03;2.97;;;19.10;99.90;;;;;;10066634;28;20310;-63
2022/09/15 22:53:07;;;;;;;3.50;2.47;;;19.00;99.90;;;;;;10078050;28;20266;-63
2022/09/15 22:57:58;;;;;;;5.30;2.97;;;19.00;99.90;;;;;;10065536;28;20511;-62
2022/09/15 23:02:49;;;;;;;5.40;2.75;;;18.80;99.90;;;;;;10048280;28;20026;-64
2022/09/15 23:07:40;;;;;;;5.47;3.00;;;18.80;99.90;;;;;;10044661;28;20126;-63
2022/09/15 23:12:31;;;;;;;3.90;2.70;;;18.70;99.90;;;;;;10088186;28;20128;-63
2022/09/15 23:17:22;;;;;;;4.63;2.88;;;18.60;99.90;;;;;;10081475;28;20805;-63
2022/09/15 23:22:12;;;;;;;8.25;4.55;;;18.50;99.90;;;;;;10070013;28;20021;-62
2022/09/15 23:27:03;;;;;;;8.27;2.85;;;18.60;99.90;;;;;;10063824;28;20166;-62
2022/09/15 23:31:54;;;;;;;5.15;3.10;;;18.50;99.90;;;;;;10060806;28;20384;-64
2022/09/15 23:36:45;;;;;;;4.93;2.75;;;18.50;99.90;;;;;;10062118;28;20056;-63
2022/09/15 23:41:37;;;;;;;5.18;3.10;;;18.50;99.90;;;;;;10082547;28;20034;-61
2022/09/15 23:46:28;;;;;;;4.68;2.92;;;18.40;99.90;;;;;;10077559;28;20462;-65
2022/09/15 23:51:19;;;;;;;4.88;2.83;;;18.30;99.90;;;;;;10062059;28;20064;-64
2022/09/15 23:56:10;;;;;;;8.52;3.85;;;18.30;99.90;;;;;;10063091;28;20017;-66
